Patterson, CA (95363)

3:40 PM PDT on August 03, 2015 (GMT -0700)
San Joaquin River Club North | | Change Station
CLOSE
Current Station
Personal Weather Station
Location: Tracy, CA
Elevation: 36 ft
Nearby Weather Stations

Elev 36 ft 37.68 °N, 121.28 °W | Updated 33 seconds ago

Clear
Clear
87.6 °F
Feels Like 86 °F
N
5.4
Wind Variable Wind from NNW
Gusts 21.3 mph

Today
High -- | Low -- °F
--% Chance of Precip.
Yesterday
High -- | Low -- °F
Precip. -- in
6:10 AM 8:11 PM
Waning Gibbous, 83% visible
Pressure 29.86 in
Visibility 10.0 miles
Clouds Clear
Heat Index 86 °F
Dew Point 56 °F
Humidity 34%
Rainfall 0.00 in
Snow Depth Not available.
UV 10 out of 12
Pollen 4.30 out of 12
Air Quality Not available.
Flu Activity Not available.
METAR KMOD 032153Z 33008KT 10SM CLR 32/11 A2986 RMK AO2 SLP112 T03170111

More Conditions Fewer Conditions

Pressure 29.86 in
Visibility 10.0 miles
Clouds Clear
Heat Index 86 °F
Dew Point 56 °F
Humidity 34%
Rainfall 0.00 in
Snow Depth Not available.
UV 10 out of 12
Pollen 4.30 out of 12
Air Quality Not available.
Flu Activity Not available.
METAR KMOD 032153Z 33008KT 10SM CLR 32/11 A2986 RMK AO2 SLP112 T03170111

More Conditions Fewer Conditions

10-Day Weather Forecast

×

Almanac

Astronomy

Aug. 03, 2015 Rise Set
Actual Time
Civil Twilight
Nautical Twilight
Astronomical Twilight
Moon
Length of Visible Light
Length of Day
Tomorrow will be .
, % of the Moon is Illuminated

Today's Extremes

State Highs State Lows

Community

WunderPhotos

Upload Photos

1,843,785 photos uploaded!

WunderBlogs® & News

Nearby

Air Quality

  Air Quality AQ Index Pollutant
Not available.

Snow Depth

Station Depth Elevation

Earthquake Activity

City Distance Mag. Time & Date
Minimum magnitude displayed is 2.5.

Coastal Water Temperatures

Place Temperature

Stations

Nearby Weather Stations

Station Location Temp. Windchill Dew Point Humidity Wind Precip. Elev Updated Type